createdAt,value
2023-01-07T04:33:23.186Z,9.80
2023-01-07T04:43:38.913Z,9.80
2023-01-07T04:53:58.246Z,9.80
2023-01-07T05:04:14.300Z,9.70
2023-01-07T05:14:30.432Z,9.70
2023-01-07T05:24:45.889Z,9.70
2023-01-07T05:35:01.916Z,9.70
2023-01-07T05:45:17.593Z,9.70
2023-01-07T05:55:33.256Z,9.70
2023-01-07T06:05:49.100Z,9.80
2023-01-07T06:16:07.012Z,9.70
2023-01-07T06:26:22.619Z,9.70
2023-01-07T06:36:37.634Z,9.70
2023-01-07T06:46:52.907Z,9.60
2023-01-07T06:57:08.388Z,9.60
2023-01-07T07:07:23.867Z,9.60
2023-01-07T07:17:39.184Z,9.60
2023-01-07T07:27:54.604Z,9.60
2023-01-07T07:38:09.852Z,9.60
2023-01-07T07:48:25.385Z,9.50
2023-01-07T07:58:42.845Z,9.50
2023-01-07T08:08:58.328Z,9.60
2023-01-07T08:19:14.885Z,9.70
2023-01-07T08:29:30.319Z,9.90
2023-01-07T08:39:45.676Z,9.90
2023-01-07T08:50:01.085Z,10.00
2023-01-07T09:00:18.233Z,10.10
2023-01-07T09:10:33.612Z,10.10
2023-01-07T09:20:49.102Z,10.20
2023-01-07T09:31:05.409Z,10.30
2023-01-07T09:41:50.851Z,10.30
2023-01-07T09:52:15.793Z,10.60
2023-01-07T10:02:57.880Z,10.70
2023-01-07T10:13:46.027Z,11.30
2023-01-07T10:24:10.608Z,11.10
2023-01-07T10:34:34.263Z,11.30
2023-01-07T10:45:01.637Z,11.30
2023-01-07T10:55:55.701Z,11.20
2023-01-07T11:06:15.701Z,11.40
2023-01-07T11:16:41.784Z,11.40
2023-01-07T11:27:15.617Z,11.10
2023-01-07T11:37:43.157Z,11.10
2023-01-07T11:48:42.648Z,11.10
2023-01-07T11:59:13.448Z,11.00
2023-01-07T12:09:31.624Z,10.90
2023-01-07T12:20:06.016Z,10.90
2023-01-07T12:30:44.192Z,11.00
2023-01-07T12:41:10.714Z,10.90
2023-01-07T12:51:40.414Z,11.00
2023-01-07T13:02:11.966Z,11.10
2023-01-07T13:12:43.279Z,11.20
2023-01-07T13:22:59.741Z,11.20
2023-01-07T13:34:02.495Z,11.10
2023-01-07T13:44:59.135Z,11.20
2023-01-07T13:55:36.448Z,11.20
2023-01-07T14:06:21.094Z,11.20
2023-01-07T14:16:46.475Z,11.30
2023-01-07T14:27:24.047Z,11.20
2023-01-07T14:37:42.185Z,10.90
2023-01-07T14:47:57.624Z,11.00
2023-01-07T14:58:34.482Z,10.70
2023-01-07T15:09:31.182Z,10.60
2023-01-07T15:19:46.694Z,10.50
2023-01-07T15:30:14.256Z,10.20
2023-01-07T15:40:29.643Z,9.80
2023-01-07T15:50:46.075Z,9.60
2023-01-07T16:01:03.337Z,9.10
2023-01-07T16:11:28.131Z,8.90
2023-01-07T16:22:00.270Z,8.80
2023-01-07T16:32:16.290Z,8.60
2023-01-07T16:42:32.580Z,8.70
2023-01-07T16:52:55.593Z,8.80
2023-01-07T17:03:12.021Z,8.90
2023-01-07T17:13:33.758Z,8.60
2023-01-07T17:23:48.793Z,8.90
2023-01-07T17:34:04.235Z,9.30
2023-01-07T17:44:19.654Z,9.50
2023-01-07T17:54:35.923Z,9.50
2023-01-07T18:04:51.081Z,9.10
2023-01-07T18:15:15.976Z,9.30
2023-01-07T18:25:31.837Z,9.20
2023-01-07T18:35:47.982Z,9.20
2023-01-07T18:46:08.092Z,9.30
2023-01-07T18:56:23.596Z,8.90
2023-01-07T19:06:38.909Z,8.90
2023-01-07T19:16:56.706Z,9.30
2023-01-07T19:27:12.534Z,9.50
2023-01-07T19:37:28.181Z,10.00
2023-01-07T19:47:44.138Z,10.00
2023-01-07T19:57:59.386Z,10.80
2023-01-07T20:08:14.838Z,10.70
2023-01-07T20:18:31.415Z,11.00
2023-01-07T20:28:47.265Z,10.90
2023-01-07T20:39:05.688Z,10.50
2023-01-07T20:49:21.075Z,10.60
2023-01-07T20:59:36.421Z,10.60
2023-01-07T21:09:51.627Z,10.50
2023-01-07T21:20:08.555Z,10.50
2023-01-07T21:30:23.995Z,10.50
2023-01-07T21:40:39.383Z,10.40
2023-01-07T21:50:54.693Z,10.50
2023-01-07T22:01:10.567Z,10.40
2023-01-07T22:11:26.307Z,10.30
2023-01-07T22:21:41.325Z,10.20
